Seattle, Washington
Traffic Map
Current Weather Conditions
Seattle, Washington
Clear
Clear

Feels Like: 0°
Wind Chill: Ceiling: Unl
Heat Index: Visibility: 10mi
Dew Point: -4° Wind: 7mph
Humidity: 57% Direction: ° ()
Pressure: 30.42in Gusts: 0mph
Raw Report DataKBFI 072053Z VRB06KT 10SM CLR 03/M04 A3042 RMK AO2 SLP300 T00331044 58007 $
Traffic Incident Summary
Active as of:
Severity:
Category:
InformationThere was an issue retrieving the traffic information for this location. Please try a different location or try again shortly.
Advertisements
Track Severe Weather on mobile